createdAt,value
2024-03-19T00:02:09.751Z,95403.05
2024-03-19T00:04:37.180Z,95414.14
2024-03-19T00:07:04.781Z,95415.30
2024-03-19T00:09:32.228Z,95412.22
2024-03-19T00:11:59.614Z,95413.64
2024-03-19T00:14:27.074Z,95411.14
2024-03-19T00:16:54.737Z,95416.03
2024-03-19T00:19:23.944Z,95414.88
2024-03-19T00:21:51.453Z,95420.23
2024-03-19T00:24:20.147Z,95418.42
2024-03-19T00:26:47.634Z,95417.23
2024-03-19T00:29:15.136Z,95416.65
2024-03-19T00:31:42.607Z,95412.91
2024-03-19T00:34:10.257Z,95413.01
2024-03-19T00:36:38.380Z,95411.41
2024-03-19T00:39:11.152Z,95419.41
2024-03-19T00:41:39.968Z,95420.33
2024-03-19T00:44:07.622Z,95420.69
2024-03-19T00:46:35.263Z,95421.57
2024-03-19T00:49:03.878Z,95420.48
2024-03-19T00:51:31.349Z,95420.17
2024-03-19T00:53:58.981Z,95419.90
2024-03-19T00:56:27.311Z,95421.43
2024-03-19T00:58:54.888Z,95416.67
2024-03-19T01:01:22.328Z,95420.50
2024-03-19T01:03:49.717Z,95419.55
2024-03-19T01:06:17.337Z,95421.67
2024-03-19T01:08:44.928Z,95428.07
2024-03-19T01:11:12.558Z,95426.10
2024-03-19T01:13:40.368Z,95423.05
2024-03-19T01:16:08.706Z,95423.71
2024-03-19T01:18:36.412Z,95423.52
2024-03-19T01:21:04.219Z,95423.58
2024-03-19T01:23:31.654Z,95417.90
2024-03-19T01:25:59.338Z,95418.96
2024-03-19T01:28:26.881Z,95424.11
2024-03-19T01:30:54.498Z,95419.52
2024-03-19T01:33:22.429Z,95416.20
2024-03-19T01:35:49.892Z,95421.89
2024-03-19T01:38:17.340Z,95422.94
2024-03-19T01:40:47.904Z,95424.11
2024-03-19T01:43:15.414Z,95427.77
2024-03-19T01:45:43.050Z,95428.61
2024-03-19T01:48:10.881Z,95425.89
2024-03-19T01:50:39.523Z,95426.77
2024-03-19T01:53:07.307Z,95424.27
2024-03-19T01:55:34.827Z,95426.11
2024-03-19T01:58:02.703Z,95425.65
2024-03-19T02:00:30.399Z,95425.36
2024-03-19T02:02:57.922Z,95421.97
2024-03-19T02:05:25.395Z,95423.58
2024-03-19T02:07:52.921Z,95422.77
2024-03-19T02:10:22.658Z,95423.04
2024-03-19T02:12:50.031Z,95423.80
2024-03-19T02:15:17.558Z,95425.04
2024-03-19T02:17:45.138Z,95419.16
2024-03-19T02:20:16.339Z,95423.44
2024-03-19T02:22:44.913Z,95425.45
2024-03-19T02:25:12.507Z,95424.33
2024-03-19T02:27:41.444Z,95424.52
2024-03-19T02:30:12.374Z,95427.95
2024-03-19T02:32:40.645Z,95423.07
2024-03-19T02:35:08.560Z,95423.23
2024-03-19T02:37:36.009Z,95419.94
2024-03-19T02:40:06.233Z,95420.80
2024-03-19T02:42:34.060Z,95419.29
2024-03-19T02:45:01.573Z,95416.05
2024-03-19T02:47:29.140Z,95420.43
2024-03-19T02:49:56.626Z,95418.67
2024-03-19T02:52:24.284Z,95421.33
2024-03-19T02:54:51.708Z,95419.38
2024-03-19T02:57:19.133Z,95418.92
2024-03-19T02:59:46.704Z,95421.92
2024-03-19T03:02:14.620Z,95423.83
2024-03-19T03:04:41.981Z,95423.23
2024-03-19T03:07:09.435Z,95425.61
2024-03-19T03:09:37.123Z,95428.09
2024-03-19T03:12:04.900Z,95430.11
2024-03-19T03:14:32.370Z,95434.55
2024-03-19T03:16:59.816Z,95434.42
2024-03-19T03:19:27.404Z,95432.88
2024-03-19T03:21:54.960Z,95434.50
2024-03-19T03:24:22.419Z,95437.01
2024-03-19T03:26:49.839Z,95443.24
2024-03-19T03:29:17.318Z,95446.31
2024-03-19T03:31:46.160Z,95451.20
2024-03-19T03:34:13.624Z,95450.73
2024-03-19T03:36:41.033Z,95456.73
2024-03-19T03:39:09.229Z,95456.52
2024-03-19T03:41:36.714Z,95461.56
2024-03-19T03:44:05.748Z,95456.60
2024-03-19T03:46:33.151Z,95460.03
2024-03-19T03:49:00.612Z,95455.40
2024-03-19T03:51:28.104Z,95458.30
2024-03-19T03:53:55.677Z,95454.73
2024-03-19T03:56:23.297Z,95455.83
2024-03-19T03:58:50.753Z,95460.27
2024-03-19T04:01:19.675Z,95460.61
2024-03-19T04:03:47.301Z,95465.63
2024-03-19T04:06:14.732Z,95467.56
2024-03-19T04:08:42.664Z,95471.89
2024-03-19T04:11:13.054Z,95475.98
2024-03-19T04:13:40.540Z,95473.79
2024-03-19T04:16:08.161Z,95479.25
2024-03-19T04:18:35.602Z,95475.36
2024-03-19T04:21:03.325Z,95477.31
2024-03-19T04:23:30.870Z,95477.04
2024-03-19T04:25:58.284Z,95477.40
2024-03-19T04:28:25.992Z,95476.08
2024-03-19T04:30:53.393Z,95481.15
2024-03-19T04:33:20.854Z,95483.77
2024-03-19T04:35:48.510Z,95478.95
2024-03-19T04:38:16.249Z,95484.34
2024-03-19T04:40:43.684Z,95485.19
2024-03-19T04:43:11.139Z,95489.64
2024-03-19T04:45:38.592Z,95493.55
2024-03-19T04:48:06.457Z,95493.80
2024-03-19T04:50:33.947Z,95498.15
2024-03-19T04:53:02.578Z,95500.16
2024-03-19T04:55:30.033Z,95500.33
2024-03-19T04:57:57.460Z,95501.11
2024-03-19T05:00:25.039Z,95502.34
2024-03-19T05:02:52.552Z,95502.92
2024-03-19T05:05:20.296Z,95503.29
2024-03-19T05:07:47.862Z,95510.63
2024-03-19T05:10:16.259Z,95510.21
2024-03-19T05:12:43.787Z,95517.65
2024-03-19T05:15:11.243Z,95512.48
2024-03-19T05:17:38.672Z,95512.84
2024-03-19T05:20:08.310Z,95509.78
2024-03-19T05:22:35.769Z,95519.67
2024-03-19T05:25:03.337Z,95523.78
2024-03-19T05:27:30.881Z,95522.02
2024-03-19T05:29:58.390Z,95527.45
2024-03-19T05:32:25.876Z,95525.77
2024-03-19T05:34:55.462Z,95526.03
2024-03-19T05:37:23.078Z,95526.90
2024-03-19T05:39:50.764Z,95532.66
2024-03-19T05:42:18.308Z,95535.05
2024-03-19T05:44:45.928Z,95536.74
2024-03-19T05:47:15.965Z,95534.83
2024-03-19T05:49:43.463Z,95543.33
2024-03-19T05:52:10.903Z,95550.23
2024-03-19T05:54:38.869Z,95547.57
2024-03-19T05:57:08.653Z,95548.05
2024-03-19T05:59:36.273Z,95547.61
2024-03-19T06:02:07.998Z,95548.58
2024-03-19T06:04:35.771Z,95551.98
2024-03-19T06:07:03.392Z,95554.73
2024-03-19T06:09:30.856Z,95553.98
2024-03-19T06:11:58.355Z,95554.56
2024-03-19T06:14:26.048Z,95561.88
2024-03-19T06:16:53.457Z,95563.45
2024-03-19T06:19:26.144Z,95568.95
2024-03-19T06:21:54.363Z,95566.10
2024-03-19T06:24:22.052Z,95566.06
2024-03-19T06:26:50.750Z,95566.61
2024-03-19T06:29:18.341Z,95566.54
2024-03-19T06:31:45.891Z,95557.51
2024-03-19T06:34:13.442Z,95561.53
2024-03-19T06:36:41.735Z,95559.63
2024-03-19T06:39:09.578Z,95560.55
2024-03-19T06:41:37.017Z,95561.98
2024-03-19T06:44:04.695Z,95562.99
2024-03-19T06:46:33.112Z,95565.88
2024-03-19T06:49:00.691Z,95565.40
2024-03-19T06:51:28.166Z,95571.36
2024-03-19T06:53:55.589Z,95571.82
2024-03-19T06:56:23.070Z,95571.34
2024-03-19T06:58:50.498Z,95572.48
2024-03-19T07:01:19.511Z,95574.92
2024-03-19T07:03:50.644Z,95578.38
2024-03-19T07:06:21.271Z,95585.61
2024-03-19T07:08:54.466Z,95587.35
2024-03-19T07:11:22.777Z,95583.50
2024-03-19T07:13:50.434Z,95587.00
2024-03-19T07:16:19.582Z,95592.49
2024-03-19T07:18:48.202Z,95598.70
2024-03-19T07:21:15.691Z,95600.76
2024-03-19T07:23:43.292Z,95605.70
2024-03-19T07:26:11.940Z,95605.91
2024-03-19T07:28:39.367Z,95606.45
2024-03-19T07:31:07.447Z,95606.17
2024-03-19T07:33:35.418Z,95613.95
2024-03-19T07:36:03.195Z,95614.25
2024-03-19T07:38:30.691Z,95614.96
2024-03-19T07:40:58.370Z,95616.71
2024-03-19T07:43:26.573Z,95614.39
2024-03-19T07:45:54.084Z,95617.05
2024-03-19T07:48:22.125Z,95615.73
2024-03-19T07:50:50.439Z,95613.20
2024-03-19T07:53:18.086Z,95609.23
2024-03-19T07:55:45.600Z,95613.82
2024-03-19T07:58:13.127Z,95610.86
2024-03-19T08:00:40.651Z,95613.08
2024-03-19T08:03:08.658Z,95614.95
2024-03-19T08:05:36.199Z,95615.86
2024-03-19T08:08:04.046Z,95621.60
2024-03-19T08:10:31.592Z,95621.52
2024-03-19T08:12:59.709Z,95626.64
2024-03-19T08:15:27.304Z,95624.11
2024-03-19T08:17:55.331Z,95625.83
2024-03-19T08:20:22.940Z,95629.02
2024-03-19T08:22:50.716Z,95630.31
2024-03-19T08:25:19.546Z,95632.33
2024-03-19T08:27:47.021Z,95632.63
2024-03-19T08:30:14.872Z,95636.11
2024-03-19T08:32:43.941Z,95632.77
2024-03-19T08:35:11.616Z,95633.43
2024-03-19T08:37:39.218Z,95636.33
2024-03-19T08:40:07.504Z,95641.77
2024-03-19T08:42:35.727Z,95639.17
2024-03-19T08:45:11.667Z,95641.21
2024-03-19T08:47:39.847Z,95641.89
2024-03-19T08:50:08.956Z,95643.27
2024-03-19T08:52:37.480Z,95650.50
2024-03-19T08:55:05.498Z,95649.36
2024-03-19T08:57:33.045Z,95650.30
2024-03-19T09:00:00.756Z,95653.90
2024-03-19T09:02:28.313Z,95652.17
2024-03-19T09:04:55.828Z,95655.59
2024-03-19T09:07:23.233Z,95658.55
2024-03-19T09:09:53.069Z,95653.14
2024-03-19T09:12:20.555Z,95659.48
2024-03-19T09:14:48.152Z,95662.52
2024-03-19T09:17:18.914Z,95660.85
2024-03-19T09:19:46.605Z,95664.37
2024-03-19T09:22:14.074Z,95668.74
2024-03-19T09:24:41.972Z,95667.73
2024-03-19T09:27:09.691Z,95668.83
2024-03-19T09:29:37.161Z,95671.09
2024-03-19T09:32:05.029Z,95667.17
2024-03-19T09:34:32.444Z,95666.22
2024-03-19T09:37:00.036Z,95664.28
2024-03-19T09:39:27.632Z,95669.63
2024-03-19T09:42:08.105Z,95665.80
2024-03-19T09:44:35.955Z,95667.62
2024-03-19T09:47:06.872Z,95667.52
2024-03-19T09:49:34.415Z,95669.14
2024-03-19T09:52:06.521Z,95670.42
2024-03-19T09:54:35.582Z,95669.87
2024-03-19T09:57:05.795Z,95669.88
2024-03-19T09:59:33.351Z,95667.80
2024-03-19T10:02:01.747Z,95669.98
2024-03-19T10:04:29.427Z,95667.00
2024-03-19T10:06:56.952Z,95662.22
2024-03-19T10:09:33.206Z,95659.72
2024-03-19T10:12:01.578Z,95662.70
2024-03-19T10:14:29.718Z,95659.64
2024-03-19T10:16:58.803Z,95669.84
2024-03-19T10:19:26.313Z,95664.56
2024-03-19T10:21:53.790Z,95667.27
2024-03-19T10:24:21.747Z,95665.81
2024-03-19T10:26:50.708Z,95668.17
2024-03-19T10:29:18.454Z,95671.29
2024-03-19T10:31:49.975Z,95667.95
2024-03-19T10:34:19.800Z,95666.02
2024-03-19T10:36:51.911Z,95668.30
2024-03-19T10:39:23.972Z,95667.77
2024-03-19T10:41:53.089Z,95659.19
2024-03-19T10:44:22.238Z,95667.14
2024-03-19T10:46:51.202Z,95671.42
2024-03-19T10:49:22.560Z,95673.23
2024-03-19T10:52:01.690Z,95671.12
2024-03-19T10:54:36.233Z,95671.98
2024-03-19T10:57:04.223Z,95666.53
2024-03-19T10:59:39.258Z,95665.71
2024-03-19T11:02:07.872Z,95668.71
2024-03-19T11:04:37.913Z,95671.30
2024-03-19T11:07:07.661Z,95667.56
2024-03-19T11:09:35.148Z,95665.94
2024-03-19T11:12:02.868Z,95660.91
2024-03-19T11:14:31.513Z,95663.25
2024-03-19T11:16:59.777Z,95667.09
2024-03-19T11:19:30.896Z,95663.46
2024-03-19T11:21:59.857Z,95663.48
2024-03-19T11:24:39.074Z,95660.15
2024-03-19T11:27:06.559Z,95660.13
2024-03-19T11:29:36.172Z,95661.05
2024-03-19T11:32:04.742Z,95655.58
2024-03-19T11:34:32.838Z,95652.77
2024-03-19T11:37:00.259Z,95652.38
2024-03-19T11:39:28.663Z,95648.01
2024-03-19T11:41:56.307Z,95654.20
2024-03-19T11:44:23.858Z,95649.11
2024-03-19T11:46:52.665Z,95653.63
2024-03-19T11:49:31.930Z,95649.23
2024-03-19T11:52:07.881Z,95645.27
2024-03-19T11:54:43.299Z,95645.77
2024-03-19T11:57:16.261Z,95647.19
2024-03-19T11:59:43.890Z,95648.36
2024-03-19T12:02:14.142Z,95647.60
2024-03-19T12:04:42.143Z,95645.45
2024-03-19T12:07:13.341Z,95643.09
2024-03-19T12:09:40.945Z,95644.55
2024-03-19T12:12:14.303Z,95639.55
2024-03-19T12:14:42.981Z,95637.05
2024-03-19T12:17:12.450Z,95638.08
2024-03-19T12:19:40.103Z,95635.23
2024-03-19T12:22:15.854Z,95632.04
2024-03-19T12:24:44.961Z,95629.05
2024-03-19T12:27:12.433Z,95626.98
2024-03-19T12:29:41.077Z,95625.09
2024-03-19T12:32:26.502Z,95629.25
2024-03-19T12:35:05.326Z,95622.84
2024-03-19T12:37:33.979Z,95623.16
2024-03-19T12:40:01.636Z,95620.58
2024-03-19T12:42:29.161Z,95620.20
2024-03-19T12:44:56.705Z,95619.36
2024-03-19T12:47:24.328Z,95621.00
2024-03-19T12:49:51.748Z,95617.73
2024-03-19T12:52:22.687Z,95615.58
2024-03-19T12:54:50.263Z,95611.23
2024-03-19T12:57:25.693Z,95609.41
2024-03-19T13:00:00.180Z,95608.52
2024-03-19T13:02:27.609Z,95609.42
2024-03-19T13:04:55.145Z,95607.88
2024-03-19T13:07:22.723Z,95606.73
2024-03-19T13:09:50.243Z,95603.67
2024-03-19T13:12:18.007Z,95603.13
2024-03-19T13:14:45.387Z,95600.74
2024-03-19T13:17:13.085Z,95600.27
2024-03-19T13:19:40.686Z,95598.77
2024-03-19T13:22:09.254Z,95598.64
2024-03-19T13:24:36.702Z,95595.95
2024-03-19T13:27:04.463Z,95592.29
2024-03-19T13:29:32.071Z,95595.70
2024-03-19T13:31:59.572Z,95591.63
2024-03-19T13:34:27.277Z,95589.29
2024-03-19T13:36:57.796Z,95588.05
2024-03-19T13:39:30.136Z,95588.34
2024-03-19T13:41:58.269Z,95590.58
2024-03-19T13:44:25.823Z,95589.88
2024-03-19T13:46:53.322Z,95589.33
2024-03-19T13:49:25.897Z,95590.34
2024-03-19T13:51:55.037Z,95588.92
2024-03-19T13:54:22.989Z,95589.08
2024-03-19T13:56:51.737Z,95588.02
2024-03-19T13:59:19.463Z,95582.45
2024-03-19T14:01:48.479Z,95586.83
2024-03-19T14:04:16.290Z,95586.23
2024-03-19T14:06:43.834Z,95581.76
2024-03-19T14:09:11.520Z,95586.34
2024-03-19T14:11:39.421Z,95580.34
2024-03-19T14:14:10.094Z,95583.74
2024-03-19T14:16:37.670Z,95580.50
2024-03-19T14:19:05.300Z,95584.70
2024-03-19T14:21:32.876Z,95581.85
2024-03-19T14:24:00.385Z,95581.61
2024-03-19T14:26:28.652Z,95578.05
2024-03-19T14:28:58.236Z,95576.70
2024-03-19T14:31:28.789Z,95573.80
2024-03-19T14:34:03.624Z,95572.05
2024-03-19T14:36:38.431Z,95571.75
2024-03-19T14:39:05.980Z,95569.33
2024-03-19T14:41:34.825Z,95567.21
2024-03-19T14:44:02.298Z,95570.30
2024-03-19T14:46:30.081Z,95571.55
2024-03-19T14:48:57.673Z,95574.66
2024-03-19T14:51:27.718Z,95576.72
2024-03-19T14:53:55.257Z,95576.51
2024-03-19T14:56:22.571Z,95578.48
2024-03-19T14:58:50.026Z,95576.84
2024-03-19T15:01:17.620Z,95577.02
2024-03-19T15:03:45.888Z,95573.80
2024-03-19T15:06:13.752Z,95572.90
2024-03-19T15:08:41.400Z,95576.67
2024-03-19T15:11:09.066Z,95575.61
2024-03-19T15:13:36.815Z,95574.27
2024-03-19T15:16:04.745Z,95574.38
2024-03-19T15:18:32.296Z,95575.34
2024-03-19T15:21:03.735Z,95578.44
2024-03-19T15:23:31.562Z,95577.11
2024-03-19T15:25:59.067Z,95574.09
2024-03-19T15:28:27.150Z,95578.54
2024-03-19T15:30:54.638Z,95574.54
2024-03-19T15:33:21.939Z,95583.02
2024-03-19T15:35:49.566Z,95589.30
2024-03-19T15:38:21.953Z,95588.52
2024-03-19T15:40:50.145Z,95592.59
2024-03-19T15:43:18.213Z,95594.80
2024-03-19T15:45:46.541Z,95602.24
2024-03-19T15:48:14.014Z,95599.48
2024-03-19T15:50:41.641Z,95598.70
2024-03-19T15:53:09.056Z,95595.24
2024-03-19T15:55:36.629Z,95599.26
2024-03-19T15:58:09.003Z,95596.91
2024-03-19T16:00:36.745Z,95597.20
2024-03-19T16:03:04.567Z,95599.10
2024-03-19T16:05:32.182Z,95603.09
2024-03-19T16:08:00.214Z,95605.02
2024-03-19T16:10:28.250Z,95604.14
2024-03-19T16:12:56.037Z,95604.31
2024-03-19T16:15:24.513Z,95606.59
2024-03-19T16:17:52.362Z,95610.32
2024-03-19T16:20:19.841Z,95611.98
2024-03-19T16:22:49.468Z,95610.70
2024-03-19T16:25:21.732Z,95615.98
2024-03-19T16:27:49.476Z,95618.20
2024-03-19T16:30:19.776Z,95621.50
2024-03-19T16:32:47.387Z,95624.33
2024-03-19T16:35:16.483Z,95627.21
2024-03-19T16:37:46.292Z,95630.80
2024-03-19T16:40:14.235Z,95632.16
2024-03-19T16:42:41.651Z,95638.02
2024-03-19T16:45:10.057Z,95646.50
2024-03-19T16:47:37.575Z,95649.44
2024-03-19T16:50:05.819Z,95655.25
2024-03-19T16:52:33.443Z,95658.70
2024-03-19T16:55:03.240Z,95662.67
2024-03-19T16:57:32.739Z,95668.07
2024-03-19T17:00:00.440Z,95667.45
2024-03-19T17:02:28.760Z,95671.29
2024-03-19T17:04:56.379Z,95670.16
2024-03-19T17:07:23.964Z,95672.35
2024-03-19T17:09:51.509Z,95677.02
2024-03-19T17:12:19.167Z,95681.02
2024-03-19T17:14:46.586Z,95682.98
2024-03-19T17:17:14.034Z,95686.19
2024-03-19T17:19:41.584Z,95689.73
2024-03-19T17:22:09.026Z,95691.87
2024-03-19T17:24:36.486Z,95693.50
2024-03-19T17:27:04.385Z,95696.10
2024-03-19T17:29:32.074Z,95697.15
2024-03-19T17:31:59.538Z,95701.27
2024-03-19T17:34:36.525Z,95702.95
2024-03-19T17:37:10.843Z,95708.17
2024-03-19T17:39:38.280Z,95708.17
2024-03-19T17:42:07.257Z,95707.73
2024-03-19T17:44:34.834Z,95708.38
2024-03-19T17:47:02.329Z,95716.85
2024-03-19T17:49:31.245Z,95719.07
2024-03-19T17:51:58.715Z,95717.53
2024-03-19T17:54:26.255Z,95723.61
2024-03-19T17:56:53.608Z,95725.62
2024-03-19T17:59:21.272Z,95723.34
2024-03-19T18:01:48.656Z,95730.71
2024-03-19T18:04:16.515Z,95730.75
2024-03-19T18:06:44.320Z,95733.27
2024-03-19T18:09:11.992Z,95735.14
2024-03-19T18:11:39.340Z,95735.99
2024-03-19T18:14:06.726Z,95737.64
2024-03-19T18:16:34.178Z,95733.73
2024-03-19T18:19:02.239Z,95737.44
2024-03-19T18:21:29.709Z,95738.11
2024-03-19T18:23:57.314Z,95739.60
2024-03-19T18:26:25.434Z,95740.66
2024-03-19T18:28:52.894Z,95741.23
2024-03-19T18:31:20.494Z,95744.64
2024-03-19T18:33:49.503Z,95744.61
2024-03-19T18:36:16.944Z,95746.23
2024-03-19T18:38:44.827Z,95744.33
2024-03-19T18:41:12.476Z,95745.42
2024-03-19T18:43:40.133Z,95748.58
2024-03-19T18:46:11.258Z,95748.17
2024-03-19T18:48:38.781Z,95747.08
2024-03-19T18:51:06.376Z,95749.64
2024-03-19T18:53:33.986Z,95752.99
2024-03-19T18:56:01.539Z,95754.27
2024-03-19T18:58:30.810Z,95754.55
2024-03-19T19:00:59.884Z,95759.52
2024-03-19T19:03:28.383Z,95760.27
2024-03-19T19:05:56.756Z,95759.34
2024-03-19T19:08:24.152Z,95763.02
2024-03-19T19:10:51.572Z,95763.45
2024-03-19T19:13:18.987Z,95770.73
2024-03-19T19:15:46.556Z,95768.00
2024-03-19T19:18:15.178Z,95766.77
2024-03-19T19:20:42.745Z,95770.91
2024-03-19T19:23:10.448Z,95770.59
2024-03-19T19:25:37.887Z,95768.48
2024-03-19T19:28:06.895Z,95767.05
2024-03-19T19:30:37.542Z,95769.20
2024-03-19T19:33:05.839Z,95768.84
2024-03-19T19:35:33.201Z,95767.59
2024-03-19T19:38:01.971Z,95769.29
2024-03-19T19:40:29.331Z,95770.77
2024-03-19T19:42:56.779Z,95772.67
2024-03-19T19:45:24.353Z,95772.34
2024-03-19T19:47:51.853Z,95769.89
2024-03-19T19:50:19.457Z,95768.16
2024-03-19T19:52:48.056Z,95765.31
2024-03-19T19:55:15.740Z,95763.63
2024-03-19T19:57:43.194Z,95756.66
2024-03-19T20:00:18.094Z,95759.36
2024-03-19T20:02:45.871Z,95759.21
2024-03-19T20:05:14.147Z,95759.96
2024-03-19T20:07:41.550Z,95763.05
2024-03-19T20:10:09.524Z,95762.33
2024-03-19T20:12:36.949Z,95768.95
2024-03-19T20:15:05.002Z,95768.40
2024-03-19T20:17:32.500Z,95776.01
2024-03-19T20:20:00.957Z,95772.52
2024-03-19T20:22:28.514Z,95766.65
2024-03-19T20:24:55.938Z,95765.94
2024-03-19T20:27:23.325Z,95765.89
2024-03-19T20:29:50.827Z,95764.48
2024-03-19T20:32:18.470Z,95773.40
2024-03-19T20:34:45.827Z,95780.49
2024-03-19T20:37:13.299Z,95786.45
2024-03-19T20:39:42.128Z,95786.73
2024-03-19T20:42:09.688Z,95789.02
2024-03-19T20:44:37.185Z,95787.07
2024-03-19T20:47:06.589Z,95784.12
2024-03-19T20:49:34.132Z,95782.80
2024-03-19T20:52:01.573Z,95783.05
2024-03-19T20:54:29.248Z,95777.98
2024-03-19T20:56:56.658Z,95778.21
2024-03-19T20:59:24.942Z,95778.27
2024-03-19T21:01:52.509Z,95773.73
2024-03-19T21:04:19.978Z,95773.61
2024-03-19T21:06:47.366Z,95778.54
2024-03-19T21:09:15.741Z,95773.14
2024-03-19T21:11:44.063Z,95772.59
2024-03-19T21:14:11.516Z,95776.48
2024-03-19T21:16:39.024Z,95775.80
2024-03-19T21:19:06.399Z,95770.17
2024-03-19T21:21:35.354Z,95766.96
2024-03-19T21:24:03.621Z,95767.63
2024-03-19T21:26:31.260Z,95773.09
2024-03-19T21:28:58.737Z,95765.21
2024-03-19T21:31:26.143Z,95768.12
2024-03-19T21:33:53.791Z,95772.05
2024-03-19T21:36:21.366Z,95769.23
2024-03-19T21:38:48.823Z,95768.18
2024-03-19T21:41:16.461Z,95769.45
2024-03-19T21:43:43.913Z,95768.66
2024-03-19T21:46:11.602Z,95761.55
2024-03-19T21:48:39.057Z,95761.28
2024-03-19T21:51:06.448Z,95756.66
2024-03-19T21:53:33.888Z,95756.06
2024-03-19T21:56:01.311Z,95756.06
2024-03-19T21:58:28.915Z,95752.69
2024-03-19T22:00:56.533Z,95755.05
2024-03-19T22:03:24.173Z,95750.84
2024-03-19T22:05:52.040Z,95748.21
2024-03-19T22:08:33.455Z,95751.91
2024-03-19T22:11:02.963Z,95752.10
2024-03-19T22:13:30.586Z,95755.95
2024-03-19T22:15:58.192Z,95756.31
2024-03-19T22:18:25.668Z,95755.00
2024-03-19T22:20:53.125Z,95754.42
2024-03-19T22:23:20.828Z,95751.45
2024-03-19T22:25:48.432Z,95755.14
2024-03-19T22:28:15.900Z,95756.95
2024-03-19T22:30:43.348Z,95756.56
2024-03-19T22:33:12.010Z,95756.85
2024-03-19T22:35:39.945Z,95753.55
2024-03-19T22:38:07.358Z,95749.02
2024-03-19T22:40:34.933Z,95744.40
2024-03-19T22:43:02.424Z,95743.46
2024-03-19T22:45:29.874Z,95745.72
2024-03-19T22:47:58.241Z,95746.77
2024-03-19T22:50:26.407Z,95746.30
2024-03-19T22:52:54.051Z,95744.98
2024-03-19T22:55:21.515Z,95743.32
2024-03-19T22:57:48.966Z,95745.35
2024-03-19T23:00:35.628Z,95740.57
2024-03-19T23:03:03.976Z,95742.41
2024-03-19T23:05:31.919Z,95745.19
2024-03-19T23:07:59.265Z,95748.42
2024-03-19T23:10:26.935Z,95751.95
2024-03-19T23:12:54.533Z,95751.52
2024-03-19T23:15:22.095Z,95749.61
2024-03-19T23:17:49.767Z,95753.73
2024-03-19T23:20:17.284Z,95748.75
2024-03-19T23:22:44.748Z,95749.52
2024-03-19T23:25:13.557Z,95751.42
2024-03-19T23:27:41.310Z,95751.95
2024-03-19T23:30:10.571Z,95754.99
2024-03-19T23:32:38.085Z,95756.24
2024-03-19T23:35:06.128Z,95754.41
2024-03-19T23:37:33.681Z,95751.94
2024-03-19T23:40:01.588Z,95750.21
2024-03-19T23:42:29.134Z,95751.09
2024-03-19T23:44:56.995Z,95746.96
2024-03-19T23:47:24.425Z,95746.98
2024-03-19T23:49:52.009Z,95749.96
2024-03-19T23:52:19.606Z,95747.86
2024-03-19T23:54:47.155Z,95744.95
2024-03-19T23:57:14.613Z,95742.47
2024-03-19T23:59:42.120Z,95738.53
